createdAt,value
2019-04-24T00:01:35.915Z,73.94
2019-04-24T00:02:30.952Z,73.94
2019-04-24T00:03:27.927Z,73.65
2019-04-24T00:04:23.181Z,73.55
2019-04-24T00:06:39.439Z,73.65
2019-04-24T00:07:16.883Z,73.75
2019-04-24T00:08:26.702Z,73.27
2019-04-24T00:09:18.334Z,73.65
2019-04-24T00:10:28.287Z,73.84
2019-04-24T00:11:35.966Z,73.65
2019-04-24T00:12:34.898Z,73.75
2019-04-24T00:14:34.877Z,73.75
2019-04-24T00:15:33.946Z,74.32
2019-04-24T00:16:22.539Z,73.84
2019-04-24T00:17:19.097Z,73.75
2019-04-24T00:19:23.481Z,74.51
2019-04-24T00:22:30.460Z,74.70
2019-04-24T00:25:33.081Z,74.61
2019-04-24T00:26:19.626Z,74.41
2019-04-24T00:27:21.860Z,75.71
2019-04-24T00:28:16.382Z,74.99
2019-04-24T00:30:20.403Z,75.37
2019-04-24T00:31:16.338Z,76.10
2019-04-24T00:32:16.610Z,76.29
2019-04-24T00:38:20.651Z,76.57
2019-04-24T00:39:21.209Z,76.57
2019-04-24T00:40:17.934Z,77.25
2019-04-24T00:44:14.838Z,78.87
2019-04-24T00:45:25.791Z,79.54
2019-04-24T00:46:33.594Z,79.35
2019-04-24T00:47:22.592Z,79.93
2019-04-24T00:48:23.543Z,79.98
2019-04-24T00:50:35.671Z,81.51
2019-04-24T00:52:31.126Z,82.94
2019-04-24T00:58:17.058Z,83.61
2019-04-24T01:00:20.444Z,83.99
2019-04-24T01:01:35.073Z,84.47
2019-04-24T01:02:21.899Z,85.33
2019-04-24T01:03:28.581Z,85.14
2019-04-24T01:04:49.507Z,85.33
2019-04-24T01:05:30.232Z,85.33
2019-04-24T01:06:17.464Z,85.52
2019-04-24T01:07:30.159Z,85.81
2019-04-24T01:08:19.526Z,86.57
2019-04-24T01:09:24.622Z,86.29
2019-04-24T01:10:20.760Z,86.47
2019-04-24T01:11:13.799Z,86.47
2019-04-24T01:13:26.115Z,86.29
2019-04-24T01:18:17.720Z,86.67
2019-04-24T01:19:15.909Z,86.38
2019-04-24T01:20:27.240Z,86.38
2019-04-24T01:22:26.133Z,85.71
2019-04-24T01:24:19.868Z,86.19
2019-04-24T01:25:33.797Z,86.96
2019-04-24T01:26:15.671Z,87.62
2019-04-24T01:27:18.398Z,87.05
2019-04-24T01:28:21.774Z,86.76
2019-04-24T01:29:18.856Z,86.38
2019-04-24T01:31:18.814Z,86.57
2019-04-24T01:32:20.618Z,86.86
2019-04-24T01:34:26.224Z,87.39
2019-04-24T01:35:16.866Z,87.77
2019-04-24T01:36:32.704Z,88.54
2019-04-24T01:38:22.952Z,89.20
2019-04-24T01:39:23.107Z,89.78
2019-04-24T01:40:27.179Z,89.63
2019-04-24T01:41:19.113Z,89.39
2019-04-24T01:42:20.612Z,89.01
2019-04-24T01:44:18.697Z,88.96
2019-04-24T01:45:18.726Z,88.58
2019-04-24T01:46:26.602Z,89.39
2019-04-24T01:47:21.907Z,89.87
2019-04-24T01:48:30.004Z,88.82
2019-04-24T01:49:24.725Z,89.06
2019-04-24T01:50:21.529Z,89.06
2019-04-24T01:51:20.828Z,89.49
2019-04-24T01:54:28.810Z,88.39
2019-04-24T01:56:24.197Z,88.01
2019-04-24T01:58:21.298Z,88.39
2019-04-24T01:59:19.959Z,88.01
2019-04-24T02:01:30.585Z,87.91
2019-04-24T02:02:19.416Z,87.05
2019-04-24T02:03:06.300Z,86.29
2019-04-24T02:04:28.441Z,85.90
2019-04-24T02:05:18.234Z,86.19
2019-04-24T02:06:15.894Z,86.38
2019-04-24T02:07:23.760Z,86.67
2019-04-24T02:08:23.317Z,86.57
2019-04-24T02:09:23.950Z,86.47
2019-04-24T02:12:20.591Z,86.38
2019-04-24T02:13:28.854Z,86.38
2019-04-24T02:14:23.949Z,86.29
2019-04-24T02:15:25.887Z,86.47
2019-04-24T02:16:13.928Z,86.67
2019-04-24T02:17:25.444Z,87.24
2019-04-24T02:18:20.121Z,87.43
2019-04-24T02:19:10.093Z,87.34
2019-04-24T02:20:31.128Z,87.53
2019-04-24T02:22:15.990Z,87.72
2019-04-24T02:23:18.534Z,87.72
2019-04-24T02:25:25.961Z,87.24
2019-04-24T02:26:14.004Z,88.39
2019-04-24T02:27:19.603Z,87.20
2019-04-24T02:28:25.816Z,87.10
2019-04-24T02:29:21.137Z,87.82
2019-04-24T02:30:33.480Z,87.62
2019-04-24T02:31:25.791Z,87.72
2019-04-24T02:35:41.471Z,86.38
2019-04-24T02:37:34.294Z,86.38
2019-04-24T02:42:41.443Z,87.05
2019-04-24T02:43:23.052Z,86.67
2019-04-24T02:45:42.891Z,86.38
2019-04-24T02:46:23.392Z,86.86
2019-04-24T02:47:18.903Z,86.86
2019-04-24T02:48:31.045Z,86.38
2019-04-24T02:50:13.426Z,87.34
2019-04-24T02:51:24.323Z,87.72
2019-04-24T02:52:37.420Z,87.58
2019-04-24T02:53:20.198Z,87.62
2019-04-24T02:56:26.006Z,87.29
2019-04-24T02:57:24.364Z,88.15
2019-04-24T02:58:26.608Z,88.06
2019-04-24T02:59:22.789Z,87.96
2019-04-24T03:01:29.665Z,88.25
2019-04-24T03:04:25.668Z,88.44
2019-04-24T03:05:22.252Z,88.63
2019-04-24T03:06:40.311Z,89.01
2019-04-24T03:09:14.383Z,89.20
2019-04-24T03:10:28.250Z,89.68
2019-04-24T03:15:22.413Z,89.39
2019-04-24T03:18:17.912Z,89.78
2019-04-24T03:20:36.963Z,90.25
2019-04-24T03:22:20.002Z,89.78
2019-04-24T03:23:30.154Z,90.35
2019-04-24T03:24:26.201Z,90.45
2019-04-24T03:26:54.922Z,90.25
2019-04-24T03:28:16.612Z,90.73
2019-04-24T03:29:26.682Z,90.83
2019-04-24T03:35:56.819Z,92.74
2019-04-24T03:37:53.311Z,93.84
2019-04-24T03:41:05.880Z,94.79
2019-04-24T03:44:58.340Z,94.79
2019-04-24T03:47:23.240Z,95.17
2019-04-24T03:49:20.534Z,95.46
2019-04-24T03:53:51.591Z,95.08
2019-04-24T03:54:14.878Z,95.56
2019-04-24T03:55:28.991Z,96.32
2019-04-24T03:57:42.117Z,96.22
2019-04-24T03:59:17.344Z,96.42
2019-04-24T04:00:36.157Z,96.61
2019-04-24T04:03:17.246Z,97.18
2019-04-24T04:04:26.650Z,97.18
2019-04-24T04:05:16.281Z,97.27
2019-04-24T04:06:17.403Z,98.03
2019-04-24T04:07:09.804Z,98.42
2019-04-24T04:08:33.194Z,99.08
2019-04-24T04:10:06.854Z,99.47
2019-04-24T04:12:25.396Z,99.61
2019-04-24T04:13:29.888Z,99.80
2019-04-24T04:14:34.751Z,99.61
2019-04-24T04:16:30.693Z,99.57
2019-04-24T04:17:35.773Z,99.80
2019-04-24T04:18:30.262Z,99.99
2019-04-24T04:19:43.944Z,99.99
2019-04-24T04:20:32.161Z,99.99
2019-04-24T04:24:18.035Z,99.99
2019-04-24T04:26:25.938Z,99.57
2019-04-24T04:27:31.236Z,99.76
2019-04-24T04:29:33.005Z,99.18
2019-04-24T04:32:24.170Z,99.47
2019-04-24T04:33:30.244Z,99.37
2019-04-24T04:36:17.940Z,99.99
2019-04-24T04:38:27.081Z,99.99
2019-04-24T04:42:44.613Z,99.99
2019-04-24T04:44:17.058Z,99.99
2019-04-24T04:45:15.980Z,99.99
2019-04-24T04:46:28.859Z,99.99
2019-04-24T04:49:31.565Z,99.99
2019-04-24T04:51:31.139Z,99.99
2019-04-24T04:52:18.719Z,99.99
2019-04-24T04:54:40.519Z,99.99
2019-04-24T04:58:25.616Z,99.99
2019-04-24T05:01:27.716Z,99.99
2019-04-24T05:02:46.987Z,99.99
2019-04-24T05:03:26.424Z,99.99
2019-04-24T05:04:16.553Z,99.99
2019-04-24T05:05:15.096Z,99.99
2019-04-24T05:06:34.026Z,99.99
2019-04-24T05:08:39.322Z,99.99
2019-04-24T05:10:28.838Z,99.99
2019-04-24T05:11:27.562Z,99.99
2019-04-24T05:12:09.092Z,99.99
2019-04-24T05:13:18.227Z,99.99
2019-04-24T05:16:38.069Z,99.99
2019-04-24T05:17:11.195Z,99.99
2019-04-24T05:18:19.594Z,99.85
2019-04-24T05:19:57.875Z,99.99
2019-04-24T05:21:30.374Z,99.99
2019-04-24T05:22:08.207Z,99.99
2019-04-24T05:23:10.718Z,99.99
2019-04-24T05:25:06.606Z,99.99
2019-04-24T05:26:39.262Z,99.99
2019-04-24T05:27:17.223Z,99.99
2019-04-24T05:28:06.406Z,99.99
2019-04-24T05:30:08.779Z,99.99
2019-04-24T05:30:54.704Z,99.99
2019-04-24T05:32:06.966Z,99.99
2019-04-24T05:34:10.126Z,99.99
2019-04-24T05:35:12.237Z,99.99
2019-04-24T05:37:11.706Z,99.99
2019-04-24T05:38:12.808Z,99.99
2019-04-24T05:39:18.701Z,99.99
2019-04-24T05:40:10.215Z,99.66
2019-04-24T05:41:18.784Z,99.66
2019-04-24T05:42:10.688Z,99.08
2019-04-24T05:43:23.262Z,99.18
2019-04-24T05:44:06.818Z,99.37
2019-04-24T05:45:08.812Z,99.28
2019-04-24T05:46:05.099Z,99.08
2019-04-24T05:46:56.461Z,99.47
2019-04-24T05:50:05.519Z,99.08
2019-04-24T05:53:07.011Z,99.52
2019-04-24T05:55:03.806Z,98.42
2019-04-24T05:57:37.458Z,98.66
2019-04-24T05:59:33.578Z,98.47
2019-04-24T06:00:08.169Z,97.61
2019-04-24T06:05:05.884Z,97.03
2019-04-24T06:06:15.126Z,96.56
2019-04-24T06:07:11.091Z,97.23
2019-04-24T06:08:19.070Z,97.13
2019-04-24T06:09:05.839Z,97.23
2019-04-24T06:11:06.791Z,97.23
2019-04-24T06:12:09.403Z,95.98
2019-04-24T06:13:30.593Z,95.51
2019-04-24T06:14:01.785Z,94.93
2019-04-24T06:14:58.828Z,94.65
2019-04-24T06:17:08.022Z,94.41
2019-04-24T06:18:08.928Z,94.70
2019-04-24T06:19:16.340Z,94.74
2019-04-24T06:22:18.633Z,93.93
2019-04-24T06:25:02.511Z,93.16
2019-04-24T06:27:15.130Z,93.84
2019-04-24T06:28:05.488Z,94.22
2019-04-24T06:31:15.038Z,92.69
2019-04-24T06:32:47.956Z,91.25
2019-04-24T06:35:16.512Z,91.25
2019-04-24T06:36:06.527Z,91.68
2019-04-24T06:37:18.411Z,91.78
2019-04-24T06:40:33.662Z,90.39
2019-04-24T06:44:32.741Z,91.59
2019-04-24T06:45:13.128Z,90.34
2019-04-24T06:46:04.488Z,90.63
2019-04-24T06:47:22.659Z,90.82
2019-04-24T06:49:54.906Z,90.63
2019-04-24T06:51:01.646Z,90.73
2019-04-24T06:52:12.391Z,89.67
2019-04-24T06:53:55.250Z,90.06
2019-04-24T06:57:19.560Z,89.77
2019-04-24T06:58:02.635Z,89.67
2019-04-24T06:58:55.128Z,89.39
2019-04-24T07:01:59.207Z,87.62
2019-04-24T07:02:56.264Z,87.81
2019-04-24T07:04:09.743Z,85.89
2019-04-24T07:07:21.273Z,84.65
2019-04-24T07:07:54.965Z,85.61
2019-04-24T07:09:14.001Z,85.71
2019-04-24T07:09:55.430Z,86.37
2019-04-24T07:11:58.548Z,85.03
2019-04-24T07:13:02.552Z,84.55
2019-04-24T07:15:08.856Z,84.12
2019-04-24T07:15:55.956Z,83.93
2019-04-24T07:18:09.342Z,82.20
2019-04-24T07:18:47.649Z,81.82
2019-04-24T07:21:03.250Z,81.63
2019-04-24T07:21:57.566Z,82.49
2019-04-24T07:22:59.757Z,81.54
2019-04-24T07:24:03.757Z,81.44
2019-04-24T07:24:58.121Z,81.92
2019-04-24T07:26:10.995Z,81.54
2019-04-24T07:27:00.451Z,82.01
2019-04-24T07:28:58.743Z,83.16
2019-04-24T07:30:10.382Z,81.48
2019-04-24T07:31:04.519Z,80.81
2019-04-24T07:31:56.095Z,80.71
2019-04-24T07:33:05.777Z,80.24
2019-04-24T07:34:16.282Z,80.52
2019-04-24T07:35:01.987Z,79.57
2019-04-24T07:36:52.729Z,79.32
2019-04-24T07:38:00.869Z,77.78
2019-04-24T07:38:52.742Z,78.27
2019-04-24T07:39:54.862Z,78.07
2019-04-24T07:41:17.104Z,78.07
2019-04-24T07:43:07.576Z,76.00
2019-04-24T07:44:57.214Z,75.52
2019-04-24T07:45:56.417Z,76.48
2019-04-24T07:47:01.274Z,75.71
2019-04-24T07:47:55.075Z,75.52
2019-04-24T07:49:08.327Z,73.99
2019-04-24T07:51:16.082Z,73.90
2019-04-24T07:53:06.047Z,73.90
2019-04-24T07:54:58.123Z,73.61
2019-04-24T07:56:03.944Z,73.35
2019-04-24T07:57:49.661Z,72.53
2019-04-24T07:59:09.035Z,72.43
2019-04-24T08:01:00.378Z,70.74
2019-04-24T08:02:59.903Z,68.91
2019-04-24T08:04:52.070Z,69.14
2019-04-24T08:05:53.993Z,69.43
2019-04-24T08:07:06.631Z,66.64
2019-04-24T08:07:55.025Z,67.03
2019-04-24T08:10:49.567Z,65.01
2019-04-24T08:11:59.421Z,64.34
2019-04-24T08:12:52.749Z,64.53
2019-04-24T08:13:56.531Z,64.85
2019-04-24T08:15:52.661Z,63.41
2019-04-24T08:17:00.652Z,62.93
2019-04-24T08:18:45.389Z,61.11
2019-04-24T08:20:10.337Z,61.81
2019-04-24T08:20:56.227Z,62.48
2019-04-24T08:22:00.803Z,60.85
2019-04-24T08:23:53.682Z,59.82
2019-04-24T08:25:08.566Z,59.63
2019-04-24T08:25:57.102Z,58.95
2019-04-24T08:26:59.342Z,58.95
2019-04-24T08:27:57.743Z,57.99
2019-04-24T08:28:58.416Z,57.25
2019-04-24T08:30:00.131Z,56.60
2019-04-24T08:31:00.053Z,56.05
2019-04-24T08:32:06.714Z,55.29
2019-04-24T08:32:58.741Z,55.29
2019-04-24T08:34:20.443Z,55.19
2019-04-24T08:35:11.365Z,54.61
2019-04-24T08:38:10.956Z,54.71
2019-04-24T08:40:02.499Z,55.02
2019-04-24T08:41:00.622Z,54.22
2019-04-24T08:42:15.431Z,54.25
2019-04-24T08:43:10.017Z,54.13
2019-04-24T08:45:02.365Z,54.52
2019-04-24T08:45:53.332Z,54.90
2019-04-24T08:46:58.038Z,55.02
2019-04-24T08:48:05.107Z,55.36
2019-04-24T08:49:57.366Z,52.55
2019-04-24T08:54:01.098Z,54.42
2019-04-24T08:56:00.452Z,53.94
2019-04-24T08:59:05.755Z,53.45
2019-04-24T08:59:58.974Z,53.55
2019-04-24T09:01:00.429Z,54.93
2019-04-24T09:01:58.358Z,53.51
2019-04-24T09:03:59.834Z,51.75
2019-04-24T09:06:51.869Z,52.13
2019-04-24T09:08:07.236Z,51.51
2019-04-24T09:09:53.560Z,51.82
2019-04-24T09:11:08.681Z,51.44
2019-04-24T09:11:50.965Z,50.67
2019-04-24T09:14:01.819Z,51.05
2019-04-24T09:14:42.081Z,49.80
2019-04-24T09:16:04.539Z,49.77
2019-04-24T09:16:55.239Z,51.05
2019-04-24T09:18:00.726Z,50.45
2019-04-24T09:18:58.922Z,50.64
2019-04-24T09:20:01.990Z,51.73
2019-04-24T09:20:55.889Z,50.67
2019-04-24T09:21:48.302Z,51.73
2019-04-24T09:22:49.242Z,50.11
2019-04-24T09:24:25.721Z,50.31
2019-04-24T09:25:07.313Z,50.23
2019-04-24T09:27:14.641Z,50.26
2019-04-24T09:27:56.174Z,48.03
2019-04-24T09:31:08.552Z,47.67
2019-04-24T09:32:58.739Z,47.43
2019-04-24T09:33:53.292Z,47.62
2019-04-24T09:34:55.874Z,45.30
2019-04-24T09:40:21.821Z,47.91
2019-04-24T09:41:18.435Z,47.63
2019-04-24T09:44:58.021Z,48.11
2019-04-24T09:45:54.549Z,48.11
2019-04-24T09:48:02.860Z,49.00
2019-04-24T09:50:01.107Z,47.86
2019-04-24T09:51:53.945Z,47.94
2019-04-24T09:53:30.127Z,48.32
2019-04-24T09:53:54.544Z,47.55
2019-04-24T09:55:02.089Z,48.03
2019-04-24T09:55:57.178Z,48.59
2019-04-24T10:00:10.447Z,47.58
2019-04-24T10:01:18.881Z,47.58
2019-04-24T10:02:55.683Z,46.51
2019-04-24T10:04:10.107Z,46.32
2019-04-24T10:07:50.574Z,47.02
2019-04-24T10:08:56.138Z,47.11
2019-04-24T10:09:55.917Z,46.53
2019-04-24T10:10:52.099Z,45.88
2019-04-24T10:12:17.702Z,45.40
2019-04-24T10:13:51.169Z,46.08
2019-04-24T10:14:52.685Z,45.49
2019-04-24T10:17:01.959Z,45.78
2019-04-24T10:17:57.858Z,45.88
2019-04-24T10:20:36.377Z,46.48
2019-04-24T10:21:48.803Z,45.40
2019-04-24T10:24:01.477Z,45.76
2019-04-24T10:25:00.492Z,45.57
2019-04-24T10:25:50.212Z,45.83
2019-04-24T10:26:48.768Z,47.00
2019-04-24T10:28:00.604Z,46.03
2019-04-24T10:29:51.278Z,45.49
2019-04-24T10:30:54.714Z,45.78
2019-04-24T10:32:55.727Z,45.57
2019-04-24T10:33:58.873Z,45.59
2019-04-24T10:34:45.877Z,45.51
2019-04-24T10:35:49.644Z,45.51
2019-04-24T10:36:55.977Z,44.06
2019-04-24T10:38:17.218Z,44.74
2019-04-24T10:38:44.197Z,45.40
2019-04-24T10:40:10.492Z,45.30
2019-04-24T10:40:57.765Z,45.40
2019-04-24T10:42:01.456Z,45.40
2019-04-24T10:43:10.553Z,44.91
2019-04-24T10:43:44.380Z,45.28
2019-04-24T10:44:45.927Z,45.88
2019-04-24T10:45:56.232Z,45.59
2019-04-24T10:46:59.184Z,45.88
2019-04-24T10:48:00.700Z,45.03
2019-04-24T10:48:46.799Z,44.64
2019-04-24T10:49:49.073Z,45.20
2019-04-24T10:50:54.506Z,45.40
2019-04-24T10:52:59.356Z,45.42
2019-04-24T10:53:49.120Z,44.09
2019-04-24T10:55:08.308Z,43.09
2019-04-24T10:56:44.675Z,42.63
2019-04-24T10:57:54.726Z,42.90
2019-04-24T10:58:48.691Z,43.79
2019-04-24T10:59:54.593Z,42.44
2019-04-24T11:01:15.313Z,42.80
2019-04-24T11:02:05.673Z,43.29
2019-04-24T11:02:49.685Z,44.04
2019-04-24T11:03:57.320Z,43.65
2019-04-24T11:05:04.563Z,44.06
2019-04-24T11:05:54.529Z,43.68
2019-04-24T11:08:13.435Z,44.40
2019-04-24T11:10:17.277Z,44.06
2019-04-24T11:10:50.738Z,43.68
2019-04-24T11:12:07.748Z,42.80
2019-04-24T11:13:05.716Z,43.99
2019-04-24T11:13:48.513Z,42.94
2019-04-24T11:14:48.315Z,42.36
2019-04-24T11:16:08.326Z,41.80
2019-04-24T11:17:03.871Z,41.70
2019-04-24T11:18:00.166Z,41.41
2019-04-24T11:19:06.002Z,40.85
2019-04-24T11:19:47.953Z,39.98
2019-04-24T11:20:59.777Z,41.05
2019-04-24T11:21:58.659Z,40.66
2019-04-24T11:22:49.684Z,40.85
2019-04-24T11:23:54.301Z,39.11
2019-04-24T11:24:57.613Z,39.69
2019-04-24T11:25:56.877Z,40.17
2019-04-24T11:26:59.217Z,40.75
2019-04-24T11:29:53.983Z,38.39
2019-04-24T11:30:49.286Z,40.73
2019-04-24T11:31:56.509Z,40.64
2019-04-24T11:32:48.402Z,40.46
2019-04-24T11:34:11.201Z,39.39
2019-04-24T11:35:43.625Z,39.36
2019-04-24T11:36:53.241Z,40.99
2019-04-24T11:37:55.971Z,40.99
2019-04-24T11:38:59.075Z,41.64
2019-04-24T11:40:12.641Z,41.25
2019-04-24T11:40:46.591Z,40.86
2019-04-24T11:42:49.539Z,41.58
2019-04-24T11:43:58.625Z,40.34
2019-04-24T11:44:54.379Z,41.05
2019-04-24T11:45:49.372Z,40.58
2019-04-24T11:47:55.175Z,38.83
2019-04-24T11:48:57.735Z,38.48
2019-04-24T11:51:11.736Z,40.31
2019-04-24T11:51:52.383Z,39.92
2019-04-24T11:53:45.456Z,39.72
2019-04-24T11:55:11.532Z,40.50
2019-04-24T11:56:01.880Z,40.61
2019-04-24T11:57:08.905Z,38.48
2019-04-24T11:59:26.943Z,40.00
2019-04-24T12:00:27.944Z,41.17
2019-04-24T12:02:05.563Z,40.79
2019-04-24T12:02:41.838Z,39.90
2019-04-24T12:04:49.853Z,39.61
2019-04-24T12:05:52.166Z,38.62
2019-04-24T12:07:54.246Z,40.17
2019-04-24T12:08:55.104Z,40.65
2019-04-24T12:09:45.729Z,39.59
2019-04-24T12:10:43.476Z,40.75
2019-04-24T12:11:40.208Z,40.56
2019-04-24T12:12:45.479Z,40.96
2019-04-24T12:13:53.010Z,40.67
2019-04-24T12:14:47.664Z,41.16
2019-04-24T12:15:54.872Z,39.70
2019-04-24T12:17:55.381Z,39.22
2019-04-24T12:19:51.426Z,39.84
2019-04-24T12:20:52.919Z,38.19
2019-04-24T12:21:43.355Z,40.25
2019-04-24T12:22:45.281Z,39.11
2019-04-24T12:24:38.816Z,38.04
2019-04-24T12:24:47.069Z,37.55
2019-04-24T12:25:58.263Z,37.73
2019-04-24T12:26:37.540Z,37.45
2019-04-24T12:27:44.429Z,37.35
2019-04-24T12:29:42.054Z,37.55
2019-04-24T12:30:46.771Z,36.77
2019-04-24T12:31:42.706Z,37.74
2019-04-24T12:32:36.768Z,37.86
2019-04-24T12:33:47.802Z,38.44
2019-04-24T12:35:31.737Z,37.39
2019-04-24T12:36:52.207Z,37.70
2019-04-24T12:37:52.655Z,37.70
2019-04-24T12:39:53.458Z,34.81
2019-04-24T12:40:40.527Z,35.94
2019-04-24T12:41:38.025Z,35.93
2019-04-24T12:43:45.408Z,38.54
2019-04-24T12:44:36.336Z,40.11
2019-04-24T12:45:48.046Z,39.74
2019-04-24T12:46:45.409Z,38.99
2019-04-24T12:47:41.137Z,38.13
2019-04-24T12:48:49.403Z,37.84
2019-04-24T12:49:47.278Z,37.86
2019-04-24T12:50:47.769Z,37.78
2019-04-24T12:51:46.313Z,37.59
2019-04-24T12:52:36.079Z,35.74
2019-04-24T12:53:44.314Z,35.55
2019-04-24T12:55:45.406Z,35.37
2019-04-24T12:56:53.193Z,35.66
2019-04-24T12:57:51.123Z,35.27
2019-04-24T12:58:54.753Z,35.27
2019-04-24T12:59:41.635Z,35.35
2019-04-24T13:00:53.409Z,36.02
2019-04-24T13:01:44.446Z,36.30
2019-04-24T13:02:42.267Z,36.04
2019-04-24T13:03:50.554Z,35.92
2019-04-24T13:04:51.552Z,35.63
2019-04-24T13:05:42.592Z,36.02
2019-04-24T13:06:32.843Z,36.79
2019-04-24T13:07:53.104Z,37.10
2019-04-24T13:08:54.049Z,35.84
2019-04-24T13:09:47.352Z,36.04
2019-04-24T13:10:47.191Z,35.32
2019-04-24T13:11:48.313Z,36.21
2019-04-24T13:12:52.235Z,35.92
2019-04-24T13:13:54.607Z,35.61
2019-04-24T13:14:51.943Z,36.08
2019-04-24T13:15:52.266Z,37.73
2019-04-24T13:17:02.788Z,36.58
2019-04-24T13:17:53.116Z,37.16
2019-04-24T13:18:51.189Z,35.80
2019-04-24T13:20:17.541Z,36.48
2019-04-24T13:21:23.121Z,35.98
2019-04-24T13:22:24.770Z,35.88
2019-04-24T13:23:27.617Z,35.59
2019-04-24T13:24:35.285Z,35.69
2019-04-24T13:25:42.201Z,34.80
2019-04-24T13:26:47.085Z,35.77
2019-04-24T13:27:56.977Z,35.77
2019-04-24T13:28:52.207Z,36.22
2019-04-24T13:29:50.895Z,37.07
2019-04-24T13:30:41.789Z,37.75
2019-04-24T13:31:42.509Z,38.45
2019-04-24T13:32:49.612Z,37.77
2019-04-24T13:33:38.573Z,37.46
2019-04-24T13:34:43.136Z,37.46
2019-04-24T13:35:52.638Z,37.96
2019-04-24T13:36:49.387Z,37.96
2019-04-24T13:38:08.262Z,36.70
2019-04-24T13:38:49.176Z,36.12
2019-04-24T13:41:58.056Z,37.96
2019-04-24T13:44:01.475Z,37.77
2019-04-24T13:44:47.013Z,37.67
2019-04-24T13:45:59.944Z,37.94
2019-04-24T13:46:45.174Z,39.11
2019-04-24T13:47:49.081Z,38.62
2019-04-24T13:48:52.219Z,38.43
2019-04-24T13:49:46.909Z,39.20
2019-04-24T13:50:44.706Z,39.39
2019-04-24T13:51:42.207Z,38.71
2019-04-24T13:53:22.952Z,39.69
2019-04-24T13:53:41.489Z,40.26
2019-04-24T13:54:39.653Z,39.39
2019-04-24T13:56:37.865Z,38.62
2019-04-24T13:57:55.106Z,39.11
2019-04-24T13:59:44.625Z,39.88
2019-04-24T14:00:52.367Z,39.90
2019-04-24T14:01:51.231Z,39.22
2019-04-24T14:03:11.472Z,39.80
2019-04-24T14:04:00.705Z,40.07
2019-04-24T14:04:37.573Z,39.80
2019-04-24T14:06:12.392Z,39.92
2019-04-24T14:07:54.371Z,38.48
2019-04-24T14:08:53.841Z,38.78
2019-04-24T14:09:57.870Z,39.16
2019-04-24T14:10:45.944Z,37.71
2019-04-24T14:13:44.514Z,37.67
2019-04-24T14:14:54.666Z,37.19
2019-04-24T14:15:55.098Z,37.77
2019-04-24T14:17:54.853Z,37.88
2019-04-24T14:18:45.784Z,37.30
2019-04-24T14:19:57.367Z,37.69
2019-04-24T14:20:37.997Z,37.69
2019-04-24T14:21:42.857Z,37.98
2019-04-24T14:22:43.021Z,37.41
2019-04-24T14:23:46.911Z,36.93
2019-04-24T14:24:44.554Z,36.93
2019-04-24T14:26:43.981Z,37.21
2019-04-24T14:27:42.511Z,36.80
2019-04-24T14:28:47.072Z,36.99
2019-04-24T14:29:42.073Z,38.06
2019-04-24T14:30:48.561Z,37.98
2019-04-24T14:31:44.457Z,37.67
2019-04-24T14:32:47.820Z,37.96
2019-04-24T14:34:44.689Z,37.67
2019-04-24T14:35:55.304Z,38.04
2019-04-24T14:36:44.561Z,38.54
2019-04-24T14:37:44.551Z,38.06
2019-04-24T14:38:48.136Z,37.67
2019-04-24T14:39:47.360Z,37.48
2019-04-24T14:40:40.689Z,38.06
2019-04-24T14:42:41.990Z,38.46
2019-04-24T14:43:52.789Z,37.88
2019-04-24T14:45:57.034Z,37.88
2019-04-24T14:47:42.245Z,37.67
2019-04-24T14:49:49.289Z,38.64
2019-04-24T14:50:34.671Z,37.59
2019-04-24T14:51:41.255Z,37.40
2019-04-24T14:53:46.708Z,37.77
2019-04-24T14:54:43.519Z,38.64
2019-04-24T14:55:37.596Z,38.15
2019-04-24T14:58:44.979Z,39.62
2019-04-24T14:59:43.756Z,38.85
2019-04-24T15:00:41.979Z,38.37
2019-04-24T15:01:47.446Z,38.95
2019-04-24T15:02:45.576Z,38.68
2019-04-24T15:03:41.954Z,37.61
2019-04-24T15:04:39.424Z,38.17
2019-04-24T15:05:57.441Z,37.69
2019-04-24T15:06:41.479Z,37.59
2019-04-24T15:07:51.783Z,37.87
2019-04-24T15:08:50.385Z,37.96
2019-04-24T15:09:32.543Z,37.77
2019-04-24T15:10:36.282Z,38.35
2019-04-24T15:12:01.313Z,38.64
2019-04-24T15:12:43.012Z,38.64
2019-04-24T15:14:40.561Z,38.95
2019-04-24T15:15:33.273Z,38.37
2019-04-24T15:16:43.286Z,37.98
2019-04-24T15:17:37.991Z,38.66
2019-04-24T15:18:45.392Z,38.46
2019-04-24T15:20:42.383Z,38.64
2019-04-24T15:21:45.169Z,38.54
2019-04-24T15:22:46.684Z,39.51
2019-04-24T15:25:49.027Z,39.49
2019-04-24T15:27:36.953Z,39.49
2019-04-24T15:28:42.366Z,40.46
2019-04-24T15:29:53.776Z,40.26
2019-04-24T15:30:37.348Z,40.58
2019-04-24T15:31:40.833Z,40.58
2019-04-24T15:34:44.511Z,38.54
2019-04-24T15:35:36.583Z,38.62
2019-04-24T15:36:36.230Z,39.49
2019-04-24T15:38:39.559Z,39.29
2019-04-24T15:39:49.787Z,39.49
2019-04-24T15:41:43.946Z,39.18
2019-04-24T15:42:48.158Z,40.15
2019-04-24T15:43:31.046Z,40.63
2019-04-24T15:44:39.983Z,40.83
2019-04-24T15:45:37.195Z,41.52
2019-04-24T15:46:44.714Z,40.94
2019-04-24T15:48:42.051Z,41.16
2019-04-24T15:50:42.893Z,40.07
2019-04-24T15:51:28.767Z,39.88
2019-04-24T15:52:06.633Z,39.49
2019-04-24T15:53:07.129Z,39.59
2019-04-24T15:54:07.195Z,40.17
2019-04-24T15:55:06.546Z,40.26
2019-04-24T15:56:06.689Z,40.46
2019-04-24T15:57:06.953Z,40.75
2019-04-24T15:58:11.875Z,41.14
2019-04-24T15:59:19.861Z,40.84
2019-04-24T16:00:38.050Z,40.86
2019-04-24T16:01:35.006Z,40.86
2019-04-24T16:02:39.244Z,40.07
2019-04-24T16:03:38.647Z,40.56
2019-04-24T16:04:47.023Z,41.24
2019-04-24T16:05:06.106Z,41.14
2019-04-24T16:06:06.099Z,40.65
2019-04-24T16:07:06.027Z,40.36
2019-04-24T16:08:06.186Z,40.36
2019-04-24T16:09:06.188Z,40.53
2019-04-24T16:10:05.943Z,40.15
2019-04-24T16:11:05.933Z,40.44
2019-04-24T16:12:05.826Z,41.11
2019-04-24T16:13:07.740Z,41.31
2019-04-24T16:14:20.164Z,41.50
2019-04-24T16:15:40.398Z,41.60
2019-04-24T16:16:40.007Z,41.41
2019-04-24T16:17:37.150Z,41.60
2019-04-24T16:18:58.080Z,41.60
2019-04-24T16:20:31.922Z,41.70
2019-04-24T16:21:29.698Z,41.21
2019-04-24T16:22:36.103Z,41.02
2019-04-24T16:24:08.140Z,41.41
2019-04-24T16:26:34.077Z,41.21
2019-04-24T16:27:43.716Z,41.50
2019-04-24T16:28:52.933Z,41.31
2019-04-24T16:29:36.308Z,41.11
2019-04-24T16:30:35.623Z,40.92
2019-04-24T16:32:12.589Z,41.11
2019-04-24T16:32:44.077Z,41.70
2019-04-24T16:34:34.793Z,41.82
2019-04-24T16:35:33.471Z,41.62
2019-04-24T16:37:29.517Z,41.24
2019-04-24T16:38:40.279Z,41.82
2019-04-24T16:39:21.549Z,41.82
2019-04-24T16:42:03.270Z,42.20
2019-04-24T16:42:40.910Z,42.30
2019-04-24T16:43:48.248Z,42.00
2019-04-24T16:48:17.577Z,41.70
2019-04-24T16:52:33.321Z,42.74
2019-04-24T16:54:51.174Z,43.32
2019-04-24T16:56:40.642Z,44.38
2019-04-24T16:58:25.084Z,44.31
2019-04-24T17:02:26.858Z,43.23
2019-04-24T17:06:35.299Z,44.07
2019-04-24T17:07:43.877Z,44.26
2019-04-24T17:08:39.219Z,45.33
2019-04-24T17:09:37.355Z,44.26
2019-04-24T17:10:54.308Z,43.98
2019-04-24T17:12:33.137Z,44.56
2019-04-24T17:14:35.738Z,45.62
2019-04-24T17:16:53.282Z,44.46
2019-04-24T17:18:41.498Z,44.43
2019-04-24T17:19:47.638Z,43.85
2019-04-24T17:23:35.057Z,45.69
2019-04-24T17:24:43.512Z,45.40
2019-04-24T17:26:27.244Z,43.76
2019-04-24T17:27:31.740Z,44.15
2019-04-24T17:29:32.067Z,44.34
2019-04-24T17:32:35.782Z,44.51
2019-04-24T17:33:30.909Z,44.42
2019-04-24T17:35:39.305Z,43.66
2019-04-24T17:36:21.387Z,42.97
2019-04-24T17:37:02.843Z,43.06
2019-04-24T17:38:02.599Z,42.87
2019-04-24T17:39:02.886Z,42.77
2019-04-24T17:40:02.188Z,43.16
2019-04-24T17:41:03.543Z,44.03
2019-04-24T17:42:09.948Z,44.12
2019-04-24T17:43:22.463Z,43.06
2019-04-24T17:44:31.576Z,42.97
2019-04-24T17:45:30.946Z,43.06
2019-04-24T17:46:21.944Z,43.16
2019-04-24T17:47:31.882Z,42.77
2019-04-24T17:48:18.580Z,43.26
2019-04-24T17:49:38.830Z,43.26
2019-04-24T17:50:31.282Z,43.06
2019-04-24T17:51:27.750Z,43.74
2019-04-24T17:53:28.092Z,43.93
2019-04-24T17:54:22.679Z,43.64
2019-04-24T17:55:23.067Z,44.10
2019-04-24T17:56:28.260Z,43.62
2019-04-24T17:57:29.828Z,44.01
2019-04-24T17:58:05.338Z,43.52
2019-04-24T17:59:02.851Z,42.94
2019-04-24T18:00:02.103Z,43.33
2019-04-24T18:01:01.790Z,43.43
2019-04-24T18:02:02.042Z,43.81
2019-04-24T18:03:06.576Z,43.33
2019-04-24T18:04:01.232Z,43.24
2019-04-24T18:05:01.702Z,43.52
2019-04-24T18:06:02.450Z,43.81